Latest Coastal Weather Observations for Orbost

IDV60701

Issued at 4:32 am EST Sunday 20 August 2017 (issued every 10 minutes, with the page automatically refreshed every 10 minutes)

About coastal observations | Map of coastal stations | Coastal observations for VIC | Marine services | Other Formats
Station Details ID: 084145 Name: ORBOST Lat: -37.69 Lon: 148.47 Height: 62.65 m
Data from the previous 72 hours. | See also: Recent months at Orbost
Date/Time
EST
Temp
°C
Wind Pressure Rain since
9am
mm
Weather Cloud Vis
km
Sea
Height
m
Swell
Dir  Spd
kts
Gust
kts
hPa Trend Height
m
Period
s
Dir
20/04:30am 5.9 NNW 4 6 1025.4 - 0.0 - - - - - - -
20/04:00am 5.3 N 5 7 1025.2 - 0.0 - - - - - - -
20/03:30am 5.0 NW 3 5 1025.4 - 0.0 - - - - - - -
20/03:00am 5.3 NW 4 6 1025.6 - 0.0 - - - - - - -
20/02:30am 5.5 WNW 5 7 1025.7 - 0.0 - - - - - - -
20/02:00am 5.7 WNW 4 8 1025.8 - 0.0 - - - - - - -
20/01:30am 5.8 WNW 4 7 1025.7 - 0.0 - - - - - - -
20/01:00am 6.1 WNW 6 9 1025.6 - 0.0 - - - - - - -
20/12:30am 6.0 NW 5 10 1025.7 - 0.0 - - - - - - -
20/12:00am 5.7 WNW 4 7 1025.8 - 0.0 - - - - - - -
 
Date/Time
EST
Temp
°C
Wind Pressure Rain since
9am
mm
Weather Cloud Vis
km
Sea
Height
m
Swell
Dir  Spd
kts
Gust
kts
hPa Trend Height
m
Period
s
Dir
19/11:30pm 6.1 WNW 4 7 1025.7 - 0.0 - - - - - - -
19/11:00pm 6.4 NW 4 6 1025.8 - 0.0 - - - - - - -
19/10:30pm 6.5 WNW 4 7 1025.9 - 0.0 - - - - - - -
19/10:00pm 6.6 WNW 6 9 1025.8 - 0.0 - - - - - - -
19/09:30pm 6.6 WNW 5 9 1025.9 - 0.0 - - - - - - -
19/09:00pm 7.3 WNW 6 10 1025.9 - 0.0 - - - - - - -
19/08:30pm 7.4 WNW 5 7 1025.9 - 0.0 - - - - - - -
19/08:00pm 7.6 WNW 3 5 1026.0 - 0.0 - - - - - - -
19/07:30pm 8.0 WSW 6 14 1025.9 - 0.0 - - - - - - -
19/07:00pm 8.4 WSW 5 9 1025.8 - 0.0 - - - - - - -
19/06:30pm 8.1 WSW 4 8 1025.6 - 0.0 - - - - - - -
19/06:00pm 8.0 WSW 5 9 1025.3 - 0.0 - - - - - - -
19/05:30pm 8.6 WSW 7 12 1025.1 - 0.0 - - - - - - -
19/05:00pm 9.3 SW 7 11 1024.9 - 0.0 - - - - - - -
19/04:30pm 9.8 SW 8 12 1024.5 - 0.0 - - - - - - -
19/04:00pm 10.3 SW 10 15 1024.4 - 0.0 - - - - - - -
19/03:30pm 10.2 SW 12 17 1024.2 - 0.0 - - - - - - -
19/03:00pm 11.2 SW 13 18 1024.0 - 0.0 - - - - - - -
19/02:30pm 10.1 SSW 13 19 1023.7 - 0.0 - - - - - - -
19/02:00pm 10.4 SW 14 22 1023.6 - 0.0 - - - - - - -
19/01:30pm 11.2 WSW 11 17 1023.4 - 0.0 - - - - - - -
19/01:00pm 10.4 WSW 10 16 1023.4 - 0.0 - - - - - - -
19/12:30pm 10.1 WSW 12 17 1023.4 - 0.0 - - - - - - -
19/12:00pm 10.6 WSW 11 15 1023.4 - 0.0 - - - - - - -
19/11:30am 9.4 WSW 8 15 1023.4 - 0.0 - - - - - - -
19/11:00am 9.2 W 8 12 1023.5 - 0.0 - - - - - - -
19/10:30am 9.2 W 9 13 1023.3 - 0.0 - - - - - - -
19/10:00am 8.0 W 10 14 1023.4 - 0.0 - - - - - - -
19/09:30am 8.1 W 9 14 1022.9 - 0.0 - - - - - - -
19/09:00am 6.9 W 8 14 1022.5 - 3.2 - - - - - - -
19/08:30am 6.6 W 6 8 1022.2 - 3.2 - - - - - - -
19/08:00am 5.7 WNW 5 8 1021.9 - 3.2 - - - - - - -
19/07:30am 5.0 WNW 5 8 1021.4 - 3.2 - - - - - - -
19/07:00am 4.7 NW 4 7 1020.8 - 3.2 - - - - - - -
19/06:30am 4.9 WNW 3 6 1020.4 - 2.6 - - - - - - -
19/06:00am 4.7 WNW 5 7 1019.5 - 2.4 Recent precip. - - - - - -
19/05:30am 5.1 WNW 7 12 1019.2 - 2.2 - - - - - - -
19/05:00am 5.1 WNW 6 11 1018.9 - 2.2 - - - - - - -
19/04:30am 5.1 WNW 7 11 1018.4 - 2.2 - - - - - - -
19/04:00am 5.3 W 8 15 1018.0 - 2.2 - - - - - - -
19/03:30am 5.5 WNW 9 15 1017.6 - 2.2 - - - - - - -
19/03:00am 6.1 W 8 15 1017.4 - 1.0 Recent precip. - - - - - -
19/02:30am 6.4 W 10 15 1017.3 - 0.6 - - - - - - -
19/02:00am 6.3 WNW 9 14 1016.6 - 0.4 - - - - - - -
19/01:30am 6.6 W 9 13 1016.6 - 0.4 - - - - - - -
19/01:00am 6.8 W 8 13 1016.5 - 0.4 - - - - - - -
19/12:30am 7.0 W 8 13 1016.1 - 0.4 - - - - - - -
19/12:00am 7.1 WNW 11 19 1015.6 - 0.4 - - - - - - -
 
Date/Time
EST
Temp
°C
Wind Pressure Rain since
9am
mm
Weather Cloud Vis
km
Sea
Height
m
Swell
Dir  Spd
kts
Gust
kts
hPa Trend Height
m
Period
s
Dir
18/11:30pm 7.0 WNW 8 15 1015.4 - 0.4 - - - - - - -
18/11:00pm 6.7 W 10 15 1015.4 - 0.4 - - - - - - -
18/10:30pm 7.3 W 11 18 1014.9 - 0.0 - - - - - - -
18/10:00pm 7.5 WNW 10 15 1014.7 - 0.0 - - - - - - -
18/09:30pm 7.3 WNW 9 14 1014.3 - 0.0 - - - - - - -
18/09:00pm 7.5 WNW 9 15 1014.0 - 0.0 - - - - - - -
18/08:30pm 7.5 WNW 8 15 1013.7 - 0.0 - - - - - - -
18/08:00pm 8.0 WNW 10 15 1013.4 - 0.0 - - - - - - -
18/07:30pm 8.2 WNW 9 15 1013.0 - 0.0 - - - - - - -
18/07:00pm 8.3 WNW 10 16 1012.6 - 0.0 - - - - - - -
18/06:30pm 8.3 WNW 10 17 1012.0 - 0.0 - - - - - - -
18/06:00pm 8.2 WNW 10 17 1011.4 - 0.0 - - - - - - -
18/05:30pm 8.2 WNW 9 15 1010.8 - 0.0 - - - - - - -
18/05:00pm 8.0 WNW 9 15 1010.5 - 0.0 - - - - - - -
18/04:30pm 8.4 WNW 11 17 1009.8 - 0.0 - - - - - - -
18/04:00pm 8.7 W 12 19 1009.2 - 0.0 - - - - - - -
18/03:31pm 8.3 W 15 25 1008.7 - 0.0 - - - - - - -
18/03:30pm 8.3 W 16 25 1008.7 - 0.0 - - - - - - -
18/03:00pm 9.1 W 18 29 1008.0 - 0.0 - - - - - - -
18/02:37pm 9.7 W 15 27 1007.7 - 0.0 - - - - - - -
18/02:30pm 10.3 W 14 23 1007.7 - 0.0 - - - - - - -
18/02:00pm 10.0 W 13 21 1007.6 - 0.0 - - - - - - -
18/01:41pm 9.9 W 15 29 1007.5 - 0.0 - - - - - - -
18/01:30pm 10.0 W 12 20 1007.5 - 0.0 - - - - - - -
18/01:01pm 10.0 W 16 27 1007.1 - 0.0 - - - - - - -
18/01:00pm 9.9 W 17 27 1007.1 - 0.0 - - - - - - -
18/12:30pm 10.9 W 17 27 1006.6 - 0.0 - - - - - - -
18/12:00pm 11.3 W 15 27 1006.2 - 0.0 - - - - - - -
18/11:50am 11.9 W 15 26 1006.1 - 0.0 - - - - - - -
18/11:30am 10.5 W 13 22 1006.3 - 0.0 - - - - - - -
18/11:05am 9.8 W 15 27 1006.4 - 0.0 - - - - - - -
18/11:00am 10.2 W 13 23 1006.3 - 0.0 - - - - - - -
18/10:30am 10.6 W 12 19 1005.8 - 0.0 - - - - - - -
18/10:00am 10.9 W 14 23 1005.6 - 0.0 - - - - - - -
18/09:30am 10.8 W 9 16 1005.3 - 0.0 - - - - - - -
18/09:00am 10.2 WNW 5 7 1005.1 - 3.8 - - - - - - -
18/08:30am 9.6 NW 6 9 1004.7 - 3.8 - - - - - - -
18/08:00am 8.3 NW 4 6 1004.4 - 3.8 - - - - - - -
18/07:30am 6.5 NNW 2 3 1004.2 - 3.8 - - - - - - -
18/07:00am 5.8 WNW 2 4 1003.9 - 3.8 - - - - - - -
18/06:30am 6.8 NNW 5 7 1003.3 - 3.8 - - - - - - -
18/06:00am 6.6 NNW 4 6 1003.2 - 3.8 - - - - - - -
18/05:30am 6.3 NNW 5 7 1003.1 - 3.8 - - - - - - -
18/05:00am 6.6 NNW 6 8 1002.9 - 3.8 - - - - - - -
18/04:30am 6.5 NNW 4 6 1002.6 - 3.8 - - - - - - -
18/04:00am 7.6 NW 4 7 1002.4 - 3.8 - - - - - - -
18/03:30am 7.7 NW 4 6 1002.0 - 3.8 - - - - - - -
18/03:00am 8.4 NNW 4 6 1002.1 - 3.8 - - - - - - -
18/02:30am 8.1 NNW 4 6 1002.2 - 3.8 - - - - - - -
18/02:00am 7.5 N 5 6 1002.3 - 3.8 - - - - - - -
18/01:30am 7.5 NW 3 4 1002.5 - 3.8 - - - - - - -
18/01:00am 9.0 WNW 4 5 1002.7 - 3.8 - - - - - - -
18/12:30am 9.5 WNW 8 15 1002.6 - 3.8 - - - - - - -
18/12:00am 9.1 NW 8 15 1002.5 - 3.8 - - - - - - -
 
Date/Time
EST
Temp
°C
Wind Pressure Rain since
9am
mm
Weather Cloud Vis
km
Sea
Height
m
Swell
Dir  Spd
kts
Gust
kts
hPa Trend Height
m
Period
s
Dir
17/11:30pm 7.5 WNW 2 4 1002.4 - 3.8 - - - - - - -
17/11:00pm 7.7 NW 2 3 1002.3 - 3.8 - - - - - - -
17/10:30pm 8.2 N 6 8 1002.7 - 3.8 - - - - - - -
17/10:00pm 8.4 N 6 8 1002.8 - 3.8 - - - - - - -
17/09:30pm 7.9 N 8 10 1003.0 - 3.8 - - - - - - -
17/09:00pm 8.2 WNW 7 10 1004.1 - 3.4 Recent precip. - - - - - -
17/08:30pm 8.2 WSW 13 20 1003.8 - 3.4 - - - - - - -
17/08:00pm 11.0 WNW 5 9 1003.2 - 2.8 - - - - - - -
17/07:30pm 11.9 NW 8 14 1002.1 - 2.6 - - - - - - -
17/07:00pm 12.1 NNW 9 15 1001.9 - 2.6 - - - - - - -
17/06:30pm 12.3 NNW 8 15 1001.4 - 2.6 - - - - - - -
17/06:00pm 12.4 NNW 9 13 1001.3 - 2.6 - - - - - - -
17/05:30pm 13.6 WNW 7 13 1000.9 - 2.6 - - - - - - -
17/05:00pm 14.1 WNW 8 12 1000.5 - 2.6 - - - - - - -
17/04:30pm 14.3 WNW 7 11 1000.1 - 2.6 - - - - - - -
17/04:00pm 14.3 NW 5 8 999.6 - 2.6 - - - - - - -
17/03:30pm 14.8 WNW 5 8 999.5 - 2.6 - - - - - - -
17/03:00pm 13.8 NW 5 7 999.5 - 2.6 - - - - - - -
17/02:30pm 12.4 NNW 8 13 999.6 - 2.6 - - - - - - -
17/02:00pm 10.4 N 9 12 1000.0 - 2.6 - - - - - - -
17/01:30pm 9.0 WNW 6 11 1000.7 - 2.0 - - - - - - -
17/01:00pm 9.6 WSW 10 21 1000.7 - 0.4 - - - - - - -
17/12:30pm 11.7 SW 8 13 999.7 - 0.0 - - - - - - -
17/12:00pm 11.8 SSW 9 13 1000.0 - 0.0 - - - - - - -
17/11:30am 13.1 WSW 8 15 1000.2 - 0.0 - - - - - - -
17/11:00am 15.8 NW 8 11 1000.3 - 0.0 - - - - - - -
17/10:30am 15.2 NW 5 8 1000.5 - 0.0 - - - - - - -
17/10:00am 14.9 NNW 9 15 1001.0 - 0.0 - - - - - - -
17/09:30am 15.0 NNW 7 10 1001.0 - 0.0 - - - - - - -
17/09:00am 14.3 NNW 8 11 1001.2 - 0.2 - - - - - - -
17/08:30am 14.4 NNW 6 9 1001.5 - 0.2 - - - - - - -
17/08:00am 13.4 NW 7 11 1001.6 - 0.2 - - - - - - -
17/07:30am 12.7 NW 5 8 1001.6 - 0.2 - - - - - - -
17/07:00am 12.9 NW 6 10 1001.4 - 0.2 - - - - - - -
17/06:30am 12.8 NW 6 11 1001.1 - 0.2 - - - - - - -
17/06:00am 13.5 NW 10 17 1000.8 - 0.2 - - - - - - -
17/05:30am 13.4 NW 9 16 1000.7 - 0.2 - - - - - - -
17/05:00am 13.6 NW 9 16 1001.2 - 0.2 - - - - - - -

Other Formats:

Comma delimited format used in spreadsheet applications
http://www.bom.gov.au/fwo/IDV60701/IDV60701.95918.axf

JavaScript Object Notation format (JSON) in row-major order
http://www.bom.gov.au/fwo/IDV60701/IDV60701.95918.json